sensor_id;sensor_type;location;lat;lon;timestamp;P1;durP1;ratioP1;P2;durP2;ratioP2
18259;SDS011;9256;52.236;5.712;2023-07-13T00:00:53;7.03;;;1.60;;
18259;SDS011;9256;52.236;5.712;2023-07-13T00:03:21;11.43;;;1.90;;
18259;SDS011;9256;52.236;5.712;2023-07-13T00:05:56;11.25;;;1.83;;
18259;SDS011;9256;52.236;5.712;2023-07-13T00:08:25;9.60;;;1.80;;
18259;SDS011;9256;52.236;5.712;2023-07-13T00:10:52;10.45;;;1.80;;
18259;SDS011;9256;52.236;5.712;2023-07-13T00:13:19;8.38;;;1.50;;
18259;SDS011;9256;52.236;5.712;2023-07-13T00:15:46;8.45;;;1.95;;
18259;SDS011;9256;52.236;5.712;2023-07-13T00:18:14;10.68;;;1.92;;
18259;SDS011;9256;52.236;5.712;2023-07-13T00:20:41;10.52;;;2.00;;
18259;SDS011;9256;52.236;5.712;2023-07-13T00:23:08;7.85;;;1.63;;
18259;SDS011;9256;52.236;5.712;2023-07-13T00:25:37;8.35;;;1.45;;
18259;SDS011;9256;52.236;5.712;2023-07-13T00:28:04;10.40;;;1.60;;
18259;SDS011;9256;52.236;5.712;2023-07-13T00:30:30;10.60;;;1.80;;
18259;SDS011;9256;52.236;5.712;2023-07-13T00:32:57;9.38;;;2.25;;
18259;SDS011;9256;52.236;5.712;2023-07-13T00:35:26;4.88;;;1.52;;
18259;SDS011;9256;52.236;5.712;2023-07-13T00:37:56;8.63;;;1.50;;
18259;SDS011;9256;52.236;5.712;2023-07-13T00:40:23;8.50;;;1.85;;
18259;SDS011;9256;52.236;5.712;2023-07-13T00:42:52;7.47;;;1.73;;
18259;SDS011;9256;52.236;5.712;2023-07-13T00:48:37;7.35;;;2.20;;
18259;SDS011;9256;52.236;5.712;2023-07-13T00:51:05;6.63;;;1.58;;
18259;SDS011;9256;52.236;5.712;2023-07-13T00:53:32;10.30;;;2.10;;
18259;SDS011;9256;52.236;5.712;2023-07-13T00:56:00;11.37;;;2.30;;
18259;SDS011;9256;52.236;5.712;2023-07-13T00:58:30;11.25;;;2.33;;
18259;SDS011;9256;52.236;5.712;2023-07-13T01:00:57;10.57;;;2.25;;
18259;SDS011;9256;52.236;5.712;2023-07-13T01:03:24;8.82;;;2.15;;
18259;SDS011;9256;52.236;5.712;2023-07-13T01:05:51;12.65;;;2.45;;
18259;SDS011;9256;52.236;5.712;2023-07-13T01:08:19;8.15;;;2.00;;
18259;SDS011;9256;52.236;5.712;2023-07-13T01:10:56;10.40;;;1.95;;
18259;SDS011;9256;52.236;5.712;2023-07-13T01:13:24;7.65;;;1.83;;
18259;SDS011;9256;52.236;5.712;2023-07-13T01:15:52;8.73;;;2.30;;
18259;SDS011;9256;52.236;5.712;2023-07-13T01:18:22;9.38;;;2.42;;
18259;SDS011;9256;52.236;5.712;2023-07-13T01:20:53;7.47;;;2.10;;
18259;SDS011;9256;52.236;5.712;2023-07-13T01:23:21;8.68;;;2.15;;
18259;SDS011;9256;52.236;5.712;2023-07-13T01:25:49;9.00;;;2.22;;
18259;SDS011;9256;52.236;5.712;2023-07-13T01:28:16;5.75;;;1.88;;
18259;SDS011;9256;52.236;5.712;2023-07-13T01:30:44;9.48;;;2.05;;
18259;SDS011;9256;52.236;5.712;2023-07-13T01:33:11;7.88;;;2.10;;
18259;SDS011;9256;52.236;5.712;2023-07-13T01:35:39;7.95;;;2.30;;
18259;SDS011;9256;52.236;5.712;2023-07-13T01:38:08;8.27;;;1.80;;
18259;SDS011;9256;52.236;5.712;2023-07-13T01:40:36;7.13;;;2.00;;
18259;SDS011;9256;52.236;5.712;2023-07-13T01:43:04;11.32;;;2.00;;
18259;SDS011;9256;52.236;5.712;2023-07-13T01:45:31;5.22;;;2.03;;
18259;SDS011;9256;52.236;5.712;2023-07-13T01:47:59;7.00;;;1.75;;
18259;SDS011;9256;52.236;5.712;2023-07-13T01:50:26;8.82;;;2.13;;
18259;SDS011;9256;52.236;5.712;2023-07-13T01:52:53;8.65;;;2.30;;
18259;SDS011;9256;52.236;5.712;2023-07-13T01:55:21;7.53;;;2.05;;
18259;SDS011;9256;52.236;5.712;2023-07-13T01:57:48;8.75;;;2.00;;
18259;SDS011;9256;52.236;5.712;2023-07-13T02:00:15;9.63;;;2.10;;
18259;SDS011;9256;52.236;5.712;2023-07-13T02:02:42;7.85;;;2.20;;
18259;SDS011;9256;52.236;5.712;2023-07-13T02:05:09;10.73;;;2.60;;
18259;SDS011;9256;52.236;5.712;2023-07-13T02:07:37;8.52;;;2.40;;
18259;SDS011;9256;52.236;5.712;2023-07-13T02:10:04;10.15;;;2.40;;
18259;SDS011;9256;52.236;5.712;2023-07-13T02:12:34;7.88;;;2.10;;
18259;SDS011;9256;52.236;5.712;2023-07-13T02:15:01;6.18;;;2.40;;
18259;SDS011;9256;52.236;5.712;2023-07-13T02:17:29;10.40;;;2.28;;
18259;SDS011;9256;52.236;5.712;2023-07-13T02:19:57;10.25;;;2.40;;
18259;SDS011;9256;52.236;5.712;2023-07-13T02:22:24;8.40;;;2.38;;
18259;SDS011;9256;52.236;5.712;2023-07-13T02:24:51;12.20;;;2.28;;
18259;SDS011;9256;52.236;5.712;2023-07-13T02:27:18;8.90;;;2.50;;
18259;SDS011;9256;52.236;5.712;2023-07-13T02:29:46;12.48;;;2.50;;
18259;SDS011;9256;52.236;5.712;2023-07-13T02:32:16;5.45;;;2.28;;
18259;SDS011;9256;52.236;5.712;2023-07-13T02:34:43;9.05;;;2.50;;
18259;SDS011;9256;52.236;5.712;2023-07-13T02:37:10;10.98;;;2.22;;
18259;SDS011;9256;52.236;5.712;2023-07-13T02:39:37;7.95;;;1.98;;
18259;SDS011;9256;52.236;5.712;2023-07-13T02:42:04;7.50;;;2.35;;
18259;SDS011;9256;52.236;5.712;2023-07-13T02:44:32;9.77;;;2.40;;
18259;SDS011;9256;52.236;5.712;2023-07-13T02:47:00;9.27;;;2.17;;
18259;SDS011;9256;52.236;5.712;2023-07-13T02:49:27;9.43;;;2.42;;
18259;SDS011;9256;52.236;5.712;2023-07-13T02:51:54;9.05;;;2.90;;
18259;SDS011;9256;52.236;5.712;2023-07-13T02:54:21;8.73;;;2.22;;
18259;SDS011;9256;52.236;5.712;2023-07-13T02:56:47;11.82;;;2.40;;
18259;SDS011;9256;52.236;5.712;2023-07-13T02:59:15;9.57;;;2.58;;
18259;SDS011;9256;52.236;5.712;2023-07-13T03:01:42;8.77;;;2.60;;
18259;SDS011;9256;52.236;5.712;2023-07-13T03:04:10;11.02;;;2.67;;
18259;SDS011;9256;52.236;5.712;2023-07-13T03:06:37;10.73;;;2.65;;
18259;SDS011;9256;52.236;5.712;2023-07-13T03:09:04;9.07;;;2.45;;
18259;SDS011;9256;52.236;5.712;2023-07-13T03:11:31;5.80;;;2.25;;
18259;SDS011;9256;52.236;5.712;2023-07-13T03:13:58;11.63;;;3.10;;
18259;SDS011;9256;52.236;5.712;2023-07-13T03:16:25;9.85;;;2.63;;
18259;SDS011;9256;52.236;5.712;2023-07-13T03:18:52;8.32;;;2.60;;
18259;SDS011;9256;52.236;5.712;2023-07-13T03:21:20;9.75;;;2.45;;
18259;SDS011;9256;52.236;5.712;2023-07-13T03:23:47;9.20;;;3.00;;
18259;SDS011;9256;52.236;5.712;2023-07-13T03:26:15;12.23;;;3.00;;
18259;SDS011;9256;52.236;5.712;2023-07-13T03:28:44;9.32;;;2.78;;
18259;SDS011;9256;52.236;5.712;2023-07-13T03:31:12;9.77;;;3.33;;
18259;SDS011;9256;52.236;5.712;2023-07-13T03:33:41;11.23;;;3.03;;
18259;SDS011;9256;52.236;5.712;2023-07-13T03:36:12;8.90;;;2.75;;
18259;SDS011;9256;52.236;5.712;2023-07-13T03:38:42;10.45;;;2.80;;
18259;SDS011;9256;52.236;5.712;2023-07-13T03:41:09;8.90;;;3.20;;
18259;SDS011;9256;52.236;5.712;2023-07-13T03:43:36;15.43;;;3.42;;
18259;SDS011;9256;52.236;5.712;2023-07-13T03:46:03;9.13;;;2.88;;
18259;SDS011;9256;52.236;5.712;2023-07-13T03:48:30;12.43;;;2.85;;
18259;SDS011;9256;52.236;5.712;2023-07-13T03:50:57;10.75;;;3.50;;
18259;SDS011;9256;52.236;5.712;2023-07-13T03:53:24;12.45;;;3.30;;
18259;SDS011;9256;52.236;5.712;2023-07-13T03:55:52;9.55;;;3.05;;
18259;SDS011;9256;52.236;5.712;2023-07-13T03:58:26;8.23;;;2.80;;
18259;SDS011;9256;52.236;5.712;2023-07-13T04:00:55;10.88;;;3.55;;
18259;SDS011;9256;52.236;5.712;2023-07-13T04:03:23;16.90;;;3.60;;
18259;SDS011;9256;52.236;5.712;2023-07-13T04:05:53;10.25;;;3.30;;
18259;SDS011;9256;52.236;5.712;2023-07-13T04:08:25;10.90;;;2.92;;
18259;SDS011;9256;52.236;5.712;2023-07-13T04:10:54;11.70;;;3.22;;
18259;SDS011;9256;52.236;5.712;2023-07-13T04:13:21;9.63;;;2.95;;
18259;SDS011;9256;52.236;5.712;2023-07-13T04:15:48;10.50;;;3.17;;
18259;SDS011;9256;52.236;5.712;2023-07-13T04:18:15;10.82;;;2.90;;
18259;SDS011;9256;52.236;5.712;2023-07-13T04:20:42;12.48;;;3.00;;
18259;SDS011;9256;52.236;5.712;2023-07-13T04:23:09;13.77;;;3.25;;
18259;SDS011;9256;52.236;5.712;2023-07-13T04:25:36;15.80;;;3.20;;
18259;SDS011;9256;52.236;5.712;2023-07-13T04:28:06;10.65;;;3.00;;
18259;SDS011;9256;52.236;5.712;2023-07-13T04:30:33;13.70;;;3.10;;
18259;SDS011;9256;52.236;5.712;2023-07-13T04:33:00;11.18;;;3.53;;
18259;SDS011;9256;52.236;5.712;2023-07-13T04:35:27;13.20;;;3.75;;
18259;SDS011;9256;52.236;5.712;2023-07-13T04:37:54;11.73;;;3.22;;
18259;SDS011;9256;52.236;5.712;2023-07-13T04:40:21;15.07;;;3.63;;
18259;SDS011;9256;52.236;5.712;2023-07-13T04:42:48;12.77;;;3.17;;
18259;SDS011;9256;52.236;5.712;2023-07-13T04:45:16;12.38;;;3.40;;
18259;SDS011;9256;52.236;5.712;2023-07-13T04:47:43;10.10;;;3.50;;
18259;SDS011;9256;52.236;5.712;2023-07-13T04:50:12;12.88;;;3.40;;
18259;SDS011;9256;52.236;5.712;2023-07-13T04:52:45;15.23;;;3.65;;
18259;SDS011;9256;52.236;5.712;2023-07-13T04:55:11;16.90;;;4.00;;
18259;SDS011;9256;52.236;5.712;2023-07-13T04:57:38;11.65;;;3.70;;
18259;SDS011;9256;52.236;5.712;2023-07-13T05:00:06;16.45;;;4.60;;
18259;SDS011;9256;52.236;5.712;2023-07-13T05:02:37;18.27;;;4.20;;
18259;SDS011;9256;52.236;5.712;2023-07-13T05:05:05;13.77;;;4.25;;
18259;SDS011;9256;52.236;5.712;2023-07-13T05:07:33;15.93;;;4.20;;
18259;SDS011;9256;52.236;5.712;2023-07-13T05:09:59;19.08;;;4.45;;
18259;SDS011;9256;52.236;5.712;2023-07-13T05:12:27;14.02;;;4.15;;
18259;SDS011;9256;52.236;5.712;2023-07-13T05:14:54;17.08;;;4.60;;
18259;SDS011;9256;52.236;5.712;2023-07-13T05:17:21;21.83;;;4.68;;
18259;SDS011;9256;52.236;5.712;2023-07-13T05:19:49;16.67;;;5.15;;
18259;SDS011;9256;52.236;5.712;2023-07-13T05:22:16;15.52;;;4.95;;
18259;SDS011;9256;52.236;5.712;2023-07-13T05:24:43;26.85;;;5.63;;
18259;SDS011;9256;52.236;5.712;2023-07-13T05:27:10;20.08;;;5.13;;
18259;SDS011;9256;52.236;5.712;2023-07-13T05:29:37;25.95;;;5.00;;
18259;SDS011;9256;52.236;5.712;2023-07-13T05:32:04;17.20;;;5.00;;
18259;SDS011;9256;52.236;5.712;2023-07-13T05:34:31;16.73;;;5.03;;
18259;SDS011;9256;52.236;5.712;2023-07-13T05:37:00;21.35;;;5.53;;
18259;SDS011;9256;52.236;5.712;2023-07-13T05:39:26;20.35;;;5.50;;
18259;SDS011;9256;52.236;5.712;2023-07-13T05:41:54;17.85;;;5.65;;
18259;SDS011;9256;52.236;5.712;2023-07-13T05:44:21;17.63;;;5.78;;
18259;SDS011;9256;52.236;5.712;2023-07-13T05:46:48;19.67;;;5.82;;
18259;SDS011;9256;52.236;5.712;2023-07-13T05:49:14;17.88;;;6.22;;
18259;SDS011;9256;52.236;5.712;2023-07-13T05:51:41;18.65;;;6.63;;
18259;SDS011;9256;52.236;5.712;2023-07-13T05:54:10;18.83;;;6.03;;
18259;SDS011;9256;52.236;5.712;2023-07-13T05:56:36;17.23;;;5.88;;
18259;SDS011;9256;52.236;5.712;2023-07-13T05:59:03;20.15;;;6.60;;
18259;SDS011;9256;52.236;5.712;2023-07-13T06:01:30;67.82;;;18.92;;
18259;SDS011;9256;52.236;5.712;2023-07-13T06:03:57;28.73;;;8.43;;
18259;SDS011;9256;52.236;5.712;2023-07-13T06:06:24;38.55;;;11.88;;
18259;SDS011;9256;52.236;5.712;2023-07-13T06:08:51;20.25;;;6.20;;
18259;SDS011;9256;52.236;5.712;2023-07-13T06:11:20;22.60;;;7.30;;
18259;SDS011;9256;52.236;5.712;2023-07-13T06:13:48;18.17;;;6.85;;
18259;SDS011;9256;52.236;5.712;2023-07-13T06:16:16;18.58;;;6.45;;
18259;SDS011;9256;52.236;5.712;2023-07-13T06:18:44;15.63;;;6.38;;
18259;SDS011;9256;52.236;5.712;2023-07-13T06:21:12;21.88;;;6.70;;
18259;SDS011;9256;52.236;5.712;2023-07-13T06:23:41;18.25;;;5.75;;
18259;SDS011;9256;52.236;5.712;2023-07-13T06:26:09;18.10;;;6.15;;
18259;SDS011;9256;52.236;5.712;2023-07-13T06:28:37;22.17;;;7.40;;
18259;SDS011;9256;52.236;5.712;2023-07-13T06:31:05;22.92;;;6.60;;
18259;SDS011;9256;52.236;5.712;2023-07-13T06:33:33;18.00;;;6.63;;
18259;SDS011;9256;52.236;5.712;2023-07-13T06:36:00;19.55;;;6.95;;
18259;SDS011;9256;52.236;5.712;2023-07-13T06:38:27;22.50;;;7.35;;
18259;SDS011;9256;52.236;5.712;2023-07-13T06:40:54;23.42;;;8.18;;
18259;SDS011;9256;52.236;5.712;2023-07-13T06:43:21;19.83;;;7.13;;
18259;SDS011;9256;52.236;5.712;2023-07-13T06:45:51;20.33;;;7.90;;
18259;SDS011;9256;52.236;5.712;2023-07-13T06:48:20;16.40;;;6.82;;
18259;SDS011;9256;52.236;5.712;2023-07-13T06:50:48;22.30;;;7.53;;
18259;SDS011;9256;52.236;5.712;2023-07-13T06:53:16;25.73;;;7.85;;
18259;SDS011;9256;52.236;5.712;2023-07-13T06:55:44;22.75;;;7.80;;
18259;SDS011;9256;52.236;5.712;2023-07-13T06:58:11;23.42;;;7.88;;
18259;SDS011;9256;52.236;5.712;2023-07-13T07:00:38;26.88;;;8.30;;
18259;SDS011;9256;52.236;5.712;2023-07-13T07:03:06;24.70;;;8.10;;
18259;SDS011;9256;52.236;5.712;2023-07-13T07:05:33;19.70;;;8.57;;
18259;SDS011;9256;52.236;5.712;2023-07-13T07:08:01;23.70;;;9.57;;
18259;SDS011;9256;52.236;5.712;2023-07-13T07:10:29;21.48;;;8.38;;
18259;SDS011;9256;52.236;5.712;2023-07-13T07:12:57;20.98;;;8.25;;
18259;SDS011;9256;52.236;5.712;2023-07-13T07:15:24;24.08;;;9.35;;
18259;SDS011;9256;52.236;5.712;2023-07-13T07:17:52;25.48;;;10.23;;
18259;SDS011;9256;52.236;5.712;2023-07-13T07:20:20;23.20;;;9.15;;
18259;SDS011;9256;52.236;5.712;2023-07-13T07:22:47;21.63;;;8.30;;
18259;SDS011;9256;52.236;5.712;2023-07-13T07:25:14;22.67;;;8.85;;
18259;SDS011;9256;52.236;5.712;2023-07-13T07:27:41;22.08;;;9.40;;
18259;SDS011;9256;52.236;5.712;2023-07-13T07:30:08;22.50;;;8.38;;
18259;SDS011;9256;52.236;5.712;2023-07-13T07:32:36;22.38;;;8.57;;
18259;SDS011;9256;52.236;5.712;2023-07-13T07:35:03;20.58;;;8.70;;
18259;SDS011;9256;52.236;5.712;2023-07-13T07:37:32;27.30;;;10.10;;
18259;SDS011;9256;52.236;5.712;2023-07-13T07:39:59;22.40;;;9.65;;
18259;SDS011;9256;52.236;5.712;2023-07-13T07:42:26;32.30;;;11.82;;
18259;SDS011;9256;52.236;5.712;2023-07-13T07:44:53;42.80;;;14.70;;
18259;SDS011;9256;52.236;5.712;2023-07-13T07:47:20;88.30;;;27.75;;
18259;SDS011;9256;52.236;5.712;2023-07-13T07:49:48;35.10;;;12.18;;
18259;SDS011;9256;52.236;5.712;2023-07-13T07:52:15;21.48;;;9.50;;
18259;SDS011;9256;52.236;5.712;2023-07-13T07:54:43;22.52;;;8.85;;
18259;SDS011;9256;52.236;5.712;2023-07-13T07:57:10;24.60;;;8.80;;
18259;SDS011;9256;52.236;5.712;2023-07-13T07:59:37;20.13;;;8.15;;
18259;SDS011;9256;52.236;5.712;2023-07-13T08:02:04;21.90;;;8.50;;
18259;SDS011;9256;52.236;5.712;2023-07-13T08:04:32;22.65;;;8.75;;
18259;SDS011;9256;52.236;5.712;2023-07-13T08:06:59;23.15;;;10.30;;
18259;SDS011;9256;52.236;5.712;2023-07-13T08:09:27;24.00;;;9.40;;
18259;SDS011;9256;52.236;5.712;2023-07-13T08:11:56;20.30;;;9.77;;
18259;SDS011;9256;52.236;5.712;2023-07-13T08:14:23;20.90;;;8.80;;
18259;SDS011;9256;52.236;5.712;2023-07-13T08:16:50;24.05;;;9.80;;
18259;SDS011;9256;52.236;5.712;2023-07-13T08:19:17;24.23;;;9.52;;
18259;SDS011;9256;52.236;5.712;2023-07-13T08:21:44;21.63;;;8.82;;
18259;SDS011;9256;52.236;5.712;2023-07-13T08:24:16;19.95;;;8.65;;
18259;SDS011;9256;52.236;5.712;2023-07-13T08:26:43;23.08;;;10.02;;
18259;SDS011;9256;52.236;5.712;2023-07-13T08:29:13;23.55;;;9.65;;
18259;SDS011;9256;52.236;5.712;2023-07-13T08:31:42;19.77;;;9.75;;
18259;SDS011;9256;52.236;5.712;2023-07-13T08:34:08;18.15;;;8.95;;
18259;SDS011;9256;52.236;5.712;2023-07-13T08:36:37;22.65;;;9.20;;
18259;SDS011;9256;52.236;5.712;2023-07-13T08:39:04;18.92;;;9.73;;
18259;SDS011;9256;52.236;5.712;2023-07-13T08:41:31;22.42;;;9.80;;
18259;SDS011;9256;52.236;5.712;2023-07-13T08:43:59;21.52;;;9.52;;
18259;SDS011;9256;52.236;5.712;2023-07-13T08:46:31;22.30;;;9.40;;
18259;SDS011;9256;52.236;5.712;2023-07-13T08:49:03;18.15;;;8.15;;
18259;SDS011;9256;52.236;5.712;2023-07-13T08:51:33;16.15;;;7.47;;
18259;SDS011;9256;52.236;5.712;2023-07-13T08:54:09;16.23;;;6.78;;
18259;SDS011;9256;52.236;5.712;2023-07-13T08:56:43;21.02;;;7.50;;
18259;SDS011;9256;52.236;5.712;2023-07-13T08:59:13;17.02;;;6.55;;
18259;SDS011;9256;52.236;5.712;2023-07-13T09:04:45;13.93;;;5.75;;
18259;SDS011;9256;52.236;5.712;2023-07-13T09:07:19;11.73;;;5.25;;
18259;SDS011;9256;52.236;5.712;2023-07-13T09:09:58;11.77;;;4.70;;
18259;SDS011;9256;52.236;5.712;2023-07-13T09:12:35;13.52;;;4.80;;
18259;SDS011;9256;52.236;5.712;2023-07-13T09:15:17;13.75;;;4.40;;
18259;SDS011;9256;52.236;5.712;2023-07-13T09:17:53;12.38;;;4.72;;
18259;SDS011;9256;52.236;5.712;2023-07-13T09:20:27;11.25;;;4.75;;
18259;SDS011;9256;52.236;5.712;2023-07-13T09:22:58;14.35;;;5.60;;
18259;SDS011;9256;52.236;5.712;2023-07-13T09:25:29;12.15;;;5.57;;
18259;SDS011;9256;52.236;5.712;2023-07-13T09:27:58;11.63;;;4.00;;
18259;SDS011;9256;52.236;5.712;2023-07-13T09:30:31;10.57;;;3.72;;
18259;SDS011;9256;52.236;5.712;2023-07-13T09:33:04;9.50;;;3.75;;
18259;SDS011;9256;52.236;5.712;2023-07-13T09:35:31;10.95;;;4.07;;
18259;SDS011;9256;52.236;5.712;2023-07-13T09:38:03;9.32;;;4.10;;
18259;SDS011;9256;52.236;5.712;2023-07-13T09:40:40;10.88;;;4.07;;
18259;SDS011;9256;52.236;5.712;2023-07-13T09:43:17;9.27;;;3.70;;
18259;SDS011;9256;52.236;5.712;2023-07-13T09:45:46;7.35;;;3.42;;
18259;SDS011;9256;52.236;5.712;2023-07-13T09:48:16;7.93;;;3.15;;
18259;SDS011;9256;52.236;5.712;2023-07-13T09:50:43;6.78;;;3.03;;
18259;SDS011;9256;52.236;5.712;2023-07-13T09:53:11;5.65;;;2.75;;
18259;SDS011;9256;52.236;5.712;2023-07-13T09:55:40;5.60;;;2.67;;
18259;SDS011;9256;52.236;5.712;2023-07-13T09:58:09;6.68;;;3.00;;
18259;SDS011;9256;52.236;5.712;2023-07-13T10:00:38;6.85;;;3.05;;
18259;SDS011;9256;52.236;5.712;2023-07-13T10:03:13;10.48;;;3.40;;
18259;SDS011;9256;52.236;5.712;2023-07-13T10:05:46;9.13;;;3.30;;
18259;SDS011;9256;52.236;5.712;2023-07-13T10:08:16;8.05;;;3.00;;
18259;SDS011;9256;52.236;5.712;2023-07-13T10:10:45;9.48;;;3.10;;
18259;SDS011;9256;52.236;5.712;2023-07-13T10:13:29;7.53;;;3.20;;
18259;SDS011;9256;52.236;5.712;2023-07-13T10:15:59;7.80;;;3.30;;
18259;SDS011;9256;52.236;5.712;2023-07-13T10:18:28;9.60;;;2.90;;
18259;SDS011;9256;52.236;5.712;2023-07-13T10:21:08;8.23;;;2.90;;
18259;SDS011;9256;52.236;5.712;2023-07-13T10:23:38;6.78;;;2.30;;
18259;SDS011;9256;52.236;5.712;2023-07-13T10:26:08;6.13;;;2.10;;
18259;SDS011;9256;52.236;5.712;2023-07-13T10:28:39;4.85;;;1.80;;
18259;SDS011;9256;52.236;5.712;2023-07-13T10:31:09;5.32;;;2.05;;
18259;SDS011;9256;52.236;5.712;2023-07-13T10:33:40;5.25;;;2.30;;
18259;SDS011;9256;52.236;5.712;2023-07-13T10:36:12;4.38;;;1.90;;
18259;SDS011;9256;52.236;5.712;2023-07-13T10:38:43;18.65;;;7.25;;
18259;SDS011;9256;52.236;5.712;2023-07-13T10:41:11;7.90;;;3.15;;
18259;SDS011;9256;52.236;5.712;2023-07-13T10:43:43;6.47;;;2.30;;
18259;SDS011;9256;52.236;5.712;2023-07-13T10:46:15;4.38;;;2.10;;
18259;SDS011;9256;52.236;5.712;2023-07-13T10:48:47;5.88;;;2.20;;
18259;SDS011;9256;52.236;5.712;2023-07-13T10:51:18;5.43;;;2.13;;
18259;SDS011;9256;52.236;5.712;2023-07-13T10:53:47;6.55;;;2.47;;
18259;SDS011;9256;52.236;5.712;2023-07-13T10:56:35;5.00;;;2.33;;
18259;SDS011;9256;52.236;5.712;2023-07-13T10:59:05;5.88;;;2.70;;
18259;SDS011;9256;52.236;5.712;2023-07-13T11:01:40;7.28;;;2.65;;
18259;SDS011;9256;52.236;5.712;2023-07-13T11:04:12;9.27;;;3.63;;
18259;SDS011;9256;52.236;5.712;2023-07-13T11:06:40;6.88;;;2.80;;
18259;SDS011;9256;52.236;5.712;2023-07-13T11:12:08;8.00;;;2.30;;
18259;SDS011;9256;52.236;5.712;2023-07-13T11:15:03;7.85;;;2.50;;
18259;SDS011;9256;52.236;5.712;2023-07-13T11:17:34;7.18;;;2.95;;
18259;SDS011;9256;52.236;5.712;2023-07-13T11:23:06;8.00;;;2.67;;
18259;SDS011;9256;52.236;5.712;2023-07-13T11:25:36;9.00;;;2.70;;
18259;SDS011;9256;52.236;5.712;2023-07-13T11:28:06;9.98;;;2.95;;
18259;SDS011;9256;52.236;5.712;2023-07-13T11:30:43;7.63;;;3.42;;
18259;SDS011;9256;52.236;5.712;2023-07-13T11:33:17;12.88;;;3.53;;
18259;SDS011;9256;52.236;5.712;2023-07-13T11:35:50;17.80;;;5.55;;
18259;SDS011;9256;52.236;5.712;2023-07-13T11:38:24;11.13;;;4.22;;
18259;SDS011;9256;52.236;5.712;2023-07-13T11:40:56;8.43;;;3.20;;
18259;SDS011;9256;52.236;5.712;2023-07-13T11:43:29;5.90;;;2.50;;
18259;SDS011;9256;52.236;5.712;2023-07-13T11:45:58;6.10;;;2.00;;
18259;SDS011;9256;52.236;5.712;2023-07-13T11:48:38;4.25;;;1.80;;
18259;SDS011;9256;52.236;5.712;2023-07-13T11:51:05;5.30;;;2.13;;
18259;SDS011;9256;52.236;5.712;2023-07-13T11:53:34;3.45;;;1.73;;
18259;SDS011;9256;52.236;5.712;2023-07-13T11:56:05;5.68;;;1.90;;
18259;SDS011;9256;52.236;5.712;2023-07-13T11:58:34;3.88;;;1.80;;
18259;SDS011;9256;52.236;5.712;2023-07-13T12:01:01;6.78;;;2.13;;
18259;SDS011;9256;52.236;5.712;2023-07-13T12:03:31;6.50;;;2.13;;
18259;SDS011;9256;52.236;5.712;2023-07-13T12:06:00;6.47;;;2.00;;
18259;SDS011;9256;52.236;5.712;2023-07-13T12:08:30;5.40;;;2.20;;
18259;SDS011;9256;52.236;5.712;2023-07-13T12:11:02;4.25;;;2.00;;
18259;SDS011;9256;52.236;5.712;2023-07-13T12:13:37;6.45;;;2.42;;
18259;SDS011;9256;52.236;5.712;2023-07-13T12:16:11;8.33;;;2.60;;
18259;SDS011;9256;52.236;5.712;2023-07-13T12:18:41;7.22;;;2.50;;
18259;SDS011;9256;52.236;5.712;2023-07-13T12:21:14;10.20;;;2.40;;
18259;SDS011;9256;52.236;5.712;2023-07-13T12:23:44;7.82;;;2.60;;
18259;SDS011;9256;52.236;5.712;2023-07-13T12:26:14;6.60;;;2.40;;
18259;SDS011;9256;52.236;5.712;2023-07-13T12:28:47;5.80;;;2.30;;
18259;SDS011;9256;52.236;5.712;2023-07-13T12:31:23;7.10;;;3.03;;
18259;SDS011;9256;52.236;5.712;2023-07-13T12:33:59;7.75;;;2.70;;
18259;SDS011;9256;52.236;5.712;2023-07-13T12:36:29;8.88;;;2.60;;
18259;SDS011;9256;52.236;5.712;2023-07-13T12:38:59;5.03;;;2.25;;
18259;SDS011;9256;52.236;5.712;2023-07-13T12:41:30;5.65;;;2.17;;
18259;SDS011;9256;52.236;5.712;2023-07-13T12:44:00;7.45;;;2.60;;
18259;SDS011;9256;52.236;5.712;2023-07-13T12:46:28;5.20;;;2.08;;
18259;SDS011;9256;52.236;5.712;2023-07-13T12:48:56;8.13;;;2.25;;
18259;SDS011;9256;52.236;5.712;2023-07-13T12:51:25;6.60;;;2.10;;
18259;SDS011;9256;52.236;5.712;2023-07-13T12:53:56;9.73;;;2.05;;
18259;SDS011;9256;52.236;5.712;2023-07-13T12:56:25;7.57;;;2.30;;
18259;SDS011;9256;52.236;5.712;2023-07-13T12:58:57;7.82;;;2.08;;
18259;SDS011;9256;52.236;5.712;2023-07-13T13:01:28;6.88;;;1.90;;
18259;SDS011;9256;52.236;5.712;2023-07-13T13:04:00;3.45;;;1.88;;
18259;SDS011;9256;52.236;5.712;2023-07-13T13:06:31;5.25;;;1.80;;
18259;SDS011;9256;52.236;5.712;2023-07-13T13:08:58;5.30;;;2.58;;
18259;SDS011;9256;52.236;5.712;2023-07-13T13:11:26;6.45;;;1.98;;
18259;SDS011;9256;52.236;5.712;2023-07-13T13:13:56;9.70;;;2.10;;
18259;SDS011;9256;52.236;5.712;2023-07-13T13:16:23;8.02;;;2.25;;
18259;SDS011;9256;52.236;5.712;2023-07-13T13:18:59;7.35;;;2.10;;
18259;SDS011;9256;52.236;5.712;2023-07-13T13:21:31;7.10;;;2.08;;
18259;SDS011;9256;52.236;5.712;2023-07-13T13:23:58;4.72;;;1.70;;
18259;SDS011;9256;52.236;5.712;2023-07-13T13:26:25;5.07;;;1.80;;
18259;SDS011;9256;52.236;5.712;2023-07-13T13:28:52;5.30;;;1.83;;
18259;SDS011;9256;52.236;5.712;2023-07-13T13:31:19;5.50;;;1.60;;
18259;SDS011;9256;52.236;5.712;2023-07-13T13:33:47;7.05;;;2.55;;
18259;SDS011;9256;52.236;5.712;2023-07-13T13:36:14;4.40;;;2.00;;
18259;SDS011;9256;52.236;5.712;2023-07-13T13:38:42;6.13;;;1.88;;
18259;SDS011;9256;52.236;5.712;2023-07-13T13:41:10;6.03;;;2.00;;
18259;SDS011;9256;52.236;5.712;2023-07-13T13:43:39;7.00;;;2.20;;
18259;SDS011;9256;52.236;5.712;2023-07-13T13:46:11;4.93;;;1.90;;
18259;SDS011;9256;52.236;5.712;2023-07-13T13:48:41;4.82;;;1.92;;
18259;SDS011;9256;52.236;5.712;2023-07-13T13:51:15;7.85;;;2.33;;
18259;SDS011;9256;52.236;5.712;2023-07-13T13:53:46;6.18;;;1.70;;
18259;SDS011;9256;52.236;5.712;2023-07-13T13:56:13;4.90;;;1.90;;
18259;SDS011;9256;52.236;5.712;2023-07-13T13:58:41;9.38;;;2.30;;
18259;SDS011;9256;52.236;5.712;2023-07-13T14:01:11;8.23;;;1.90;;
18259;SDS011;9256;52.236;5.712;2023-07-13T14:03:39;3.95;;;2.08;;
18259;SDS011;9256;52.236;5.712;2023-07-13T14:06:07;7.10;;;1.92;;
18259;SDS011;9256;52.236;5.712;2023-07-13T14:08:38;5.53;;;2.13;;
18259;SDS011;9256;52.236;5.712;2023-07-13T14:11:07;4.47;;;1.80;;
18259;SDS011;9256;52.236;5.712;2023-07-13T14:13:38;5.80;;;1.88;;
18259;SDS011;9256;52.236;5.712;2023-07-13T14:16:09;6.05;;;1.80;;
18259;SDS011;9256;52.236;5.712;2023-07-13T14:18:40;5.45;;;2.17;;
18259;SDS011;9256;52.236;5.712;2023-07-13T14:21:11;6.57;;;2.28;;
18259;SDS011;9256;52.236;5.712;2023-07-13T14:23:41;7.85;;;2.17;;
18259;SDS011;9256;52.236;5.712;2023-07-13T14:26:10;6.03;;;2.17;;
18259;SDS011;9256;52.236;5.712;2023-07-13T14:28:41;5.72;;;2.20;;
18259;SDS011;9256;52.236;5.712;2023-07-13T14:31:10;6.60;;;2.58;;
18259;SDS011;9256;52.236;5.712;2023-07-13T14:33:37;6.28;;;2.50;;
18259;SDS011;9256;52.236;5.712;2023-07-13T14:36:22;8.57;;;2.40;;
18259;SDS011;9256;52.236;5.712;2023-07-13T14:38:55;5.25;;;2.22;;
18259;SDS011;9256;52.236;5.712;2023-07-13T14:41:23;6.40;;;2.17;;
18259;SDS011;9256;52.236;5.712;2023-07-13T14:43:50;3.78;;;1.90;;
18259;SDS011;9256;52.236;5.712;2023-07-13T14:46:24;6.68;;;2.33;;
18259;SDS011;9256;52.236;5.712;2023-07-13T14:48:59;5.82;;;2.13;;
18259;SDS011;9256;52.236;5.712;2023-07-13T14:51:30;5.75;;;2.08;;
18259;SDS011;9256;52.236;5.712;2023-07-13T14:54:02;6.50;;;2.40;;
18259;SDS011;9256;52.236;5.712;2023-07-13T14:56:31;5.68;;;2.58;;
18259;SDS011;9256;52.236;5.712;2023-07-13T14:58:58;5.82;;;2.38;;
18259;SDS011;9256;52.236;5.712;2023-07-13T15:01:24;6.13;;;2.17;;
18259;SDS011;9256;52.236;5.712;2023-07-13T15:03:52;6.75;;;2.30;;
18259;SDS011;9256;52.236;5.712;2023-07-13T15:06:19;6.53;;;2.40;;
18259;SDS011;9256;52.236;5.712;2023-07-13T15:08:46;5.22;;;2.05;;
18259;SDS011;9256;52.236;5.712;2023-07-13T15:11:16;7.38;;;1.80;;
18259;SDS011;9256;52.236;5.712;2023-07-13T15:13:43;7.85;;;2.17;;
18259;SDS011;9256;52.236;5.712;2023-07-13T15:16:13;11.55;;;4.85;;
18259;SDS011;9256;52.236;5.712;2023-07-13T15:18:43;10.38;;;3.47;;